createdAt,value
2018-02-03T00:01:56.427Z,81.00
2018-02-03T00:05:59.037Z,81.20
2018-02-03T00:10:01.604Z,80.50
2018-02-03T00:14:04.138Z,80.50
2018-02-03T00:18:06.646Z,80.50
2018-02-03T00:22:10.064Z,80.80
2018-02-03T00:26:13.317Z,81.20
2018-02-03T00:30:16.626Z,80.80
2018-02-03T00:34:20.025Z,80.80
2018-02-03T00:38:23.331Z,80.70
2018-02-03T00:42:26.620Z,80.60
2018-02-03T00:46:29.172Z,80.50
2018-02-03T00:50:31.832Z,80.80
2018-02-03T00:54:35.484Z,80.30
2018-02-03T00:58:38.149Z,80.30
2018-02-03T01:02:40.854Z,80.10
2018-02-03T01:06:43.468Z,80.30
2018-02-03T01:10:45.982Z,80.40
2018-02-03T01:14:49.269Z,80.50
2018-02-03T01:18:51.769Z,80.40
2018-02-03T01:22:55.074Z,80.20
2018-02-03T01:26:58.394Z,79.60
2018-02-03T01:31:00.906Z,79.60
2018-02-03T01:35:03.650Z,79.50
2018-02-03T01:39:06.941Z,79.10
2018-02-03T01:43:09.473Z,79.00
2018-02-03T01:47:12.002Z,78.90
2018-02-03T01:51:14.668Z,78.60
2018-02-03T01:55:17.170Z,78.70
2018-02-03T01:59:19.707Z,79.10
2018-02-03T02:03:22.353Z,78.80
2018-02-03T02:07:24.896Z,78.80
2018-02-03T02:11:27.423Z,79.00
2018-02-03T02:15:29.931Z,78.80
2018-02-03T02:19:33.224Z,79.20
2018-02-03T02:23:37.589Z,79.10
2018-02-03T02:27:40.115Z,78.70
2018-02-03T02:31:42.622Z,78.80
2018-02-03T02:35:45.153Z,78.40
2018-02-03T02:39:47.666Z,78.70
2018-02-03T02:43:50.959Z,77.90
2018-02-03T02:47:53.510Z,77.90
2018-02-03T02:51:56.829Z,78.90
2018-02-03T02:55:59.325Z,78.90
2018-02-03T03:00:01.888Z,79.00
2018-02-03T03:04:05.205Z,78.20
2018-02-03T03:08:07.736Z,78.20
2018-02-03T03:12:10.256Z,77.50
2018-02-03T03:16:13.552Z,78.30
2018-02-03T03:20:16.825Z,78.20
2018-02-03T03:24:19.595Z,78.20
2018-02-03T03:28:22.778Z,77.60
2018-02-03T03:32:25.316Z,77.20
2018-02-03T03:36:27.825Z,77.80
2018-02-03T03:40:31.107Z,77.80
2018-02-03T03:44:33.632Z,77.70
2018-02-03T03:48:36.146Z,77.80
2018-02-03T03:52:38.678Z,76.80
2018-02-03T03:56:41.984Z,77.70
2018-02-03T04:00:45.252Z,77.70
2018-02-03T04:04:47.786Z,77.70
2018-02-03T04:08:50.300Z,77.80
2018-02-03T04:12:52.833Z,77.40
2018-02-03T04:16:55.335Z,77.30
2018-02-03T04:20:58.638Z,76.50
2018-02-03T04:25:01.909Z,76.80
2018-02-03T04:29:04.429Z,76.70
2018-02-03T04:33:07.687Z,77.20
2018-02-03T04:37:10.218Z,77.20
2018-02-03T04:41:13.500Z,76.30
2018-02-03T04:45:16.017Z,76.30
2018-02-03T04:49:18.552Z,76.30
2018-02-03T04:53:21.114Z,77.10
2018-02-03T04:57:23.685Z,77.40
2018-02-03T05:01:26.180Z,77.40
2018-02-03T05:05:28.797Z,77.20
2018-02-03T05:09:31.328Z,76.60
2018-02-03T05:13:34.624Z,77.50
2018-02-03T05:17:37.886Z,77.60
2018-02-03T05:21:41.389Z,77.50
2018-02-03T05:25:43.920Z,77.60
2018-02-03T05:29:47.201Z,77.60
2018-02-03T05:33:49.832Z,77.50
2018-02-03T05:37:52.352Z,75.80
2018-02-03T05:41:54.876Z,74.80
2018-02-03T05:45:57.485Z,74.30
2018-02-03T05:50:00.024Z,74.50
2018-02-03T05:54:02.563Z,74.10
2018-02-03T05:58:05.211Z,74.40
2018-02-03T06:02:07.727Z,74.50
2018-02-03T06:06:11.015Z,75.50
2018-02-03T06:10:14.295Z,75.70
2018-02-03T06:14:16.831Z,75.70
2018-02-03T06:18:19.360Z,76.30
2018-02-03T06:22:21.864Z,76.70
2018-02-03T06:26:24.394Z,76.20
2018-02-03T06:30:26.926Z,75.80
2018-02-03T06:34:29.441Z,75.00
2018-02-03T06:38:32.731Z,75.90
2018-02-03T06:42:35.238Z,75.90
2018-02-03T06:46:37.776Z,76.20
2018-02-03T06:50:40.273Z,76.80
2018-02-03T06:54:42.816Z,75.70
2018-02-03T06:58:45.327Z,75.70
2018-02-03T07:02:47.862Z,77.00
2018-02-03T07:06:51.130Z,76.70
2018-02-03T07:10:53.662Z,76.60
2018-02-03T07:14:56.186Z,76.70
2018-02-03T07:18:58.711Z,75.50
2018-02-03T07:23:02.123Z,75.60
2018-02-03T07:27:05.413Z,76.40
2018-02-03T07:31:07.932Z,76.30
2018-02-03T07:35:10.464Z,76.60
2018-02-03T07:39:12.992Z,76.00
2018-02-03T07:43:16.284Z,76.10
2018-02-03T07:47:19.561Z,76.20
2018-02-03T07:51:22.173Z,76.20
2018-02-03T07:55:25.452Z,75.40
2018-02-03T07:59:27.994Z,75.30
2018-02-03T08:03:30.499Z,76.30
2018-02-03T08:07:33.045Z,76.80
2018-02-03T08:11:36.317Z,75.70
2018-02-03T08:15:38.844Z,75.50
2018-02-03T08:19:41.350Z,75.90
2018-02-03T08:23:43.919Z,75.90
2018-02-03T08:27:46.432Z,76.60
2018-02-03T08:31:48.964Z,75.80
2018-02-03T08:35:52.262Z,76.50
2018-02-03T08:39:55.568Z,75.70
2018-02-03T08:43:58.133Z,76.00
2018-02-03T08:48:00.653Z,76.00
2018-02-03T08:52:03.940Z,75.60
2018-02-03T08:56:06.482Z,75.60
2018-02-03T09:00:08.992Z,75.10
2018-02-03T09:04:12.300Z,75.70
2018-02-03T09:08:16.346Z,76.20
2018-02-03T09:12:19.668Z,76.30
2018-02-03T09:16:22.164Z,76.20
2018-02-03T09:20:24.761Z,75.40
2018-02-03T09:24:27.276Z,75.40
2018-02-03T09:28:29.802Z,75.90
2018-02-03T09:32:33.076Z,75.10
2018-02-03T09:40:44.460Z,74.70
2018-02-03T09:44:47.012Z,75.00
2018-02-03T09:48:50.302Z,74.30
2018-02-03T09:52:54.308Z,74.30
2018-02-03T09:56:56.821Z,74.00
2018-02-03T10:01:00.297Z,74.90
2018-02-03T10:05:02.825Z,75.00
2018-02-03T10:09:06.117Z,73.70
2018-02-03T10:13:09.404Z,74.00
2018-02-03T10:17:11.924Z,74.00
2018-02-03T10:21:15.065Z,73.90
2018-02-03T10:25:17.668Z,88.30
2018-02-03T10:29:20.265Z,80.10
2018-02-03T10:33:22.769Z,72.60
2018-02-03T10:37:26.054Z,72.70
2018-02-03T10:41:28.544Z,72.60
2018-02-03T10:45:31.103Z,73.00
2018-02-03T10:49:33.585Z,74.50
2018-02-03T10:53:36.109Z,74.50
2018-02-03T10:57:39.382Z,75.60
2018-02-03T11:01:41.988Z,75.60
2018-02-03T11:05:44.487Z,75.60
2018-02-03T11:09:47.798Z,76.60
2018-02-03T11:13:51.060Z,76.90
2018-02-03T11:17:53.604Z,76.90
2018-02-03T11:21:56.103Z,77.20
2018-02-03T11:25:58.637Z,76.90
2018-02-03T11:30:01.142Z,76.80
2018-02-03T11:34:04.439Z,77.10
2018-02-03T11:38:07.745Z,78.00
2018-02-03T11:42:11.068Z,77.50
2018-02-03T11:46:13.579Z,77.50
2018-02-03T11:50:16.117Z,77.60
2018-02-03T11:54:19.380Z,78.20
2018-02-03T11:58:22.016Z,78.10
2018-02-03T12:02:25.292Z,78.10
2018-02-03T12:06:27.812Z,78.10
2018-02-03T12:10:30.320Z,78.30
2018-02-03T12:14:32.851Z,78.40
2018-02-03T12:18:35.352Z,78.90
2018-02-03T12:22:38.673Z,79.20
2018-02-03T12:26:41.220Z,79.10
2018-02-03T12:30:43.897Z,78.80
2018-02-03T12:34:46.393Z,79.00
2018-02-03T12:38:48.936Z,79.70
2018-02-03T12:42:51.435Z,79.40
2018-02-03T12:46:53.962Z,78.80
2018-02-03T12:50:56.508Z,79.00
2018-02-03T12:54:59.039Z,79.20
2018-02-03T12:59:01.566Z,78.20
2018-02-03T13:03:04.079Z,79.60
2018-02-03T13:07:06.655Z,80.50
2018-02-03T13:11:10.006Z,82.90
2018-02-03T13:15:13.010Z,80.30
2018-02-03T13:19:16.269Z,79.40
2018-02-03T13:23:19.560Z,78.40
2018-02-03T13:27:22.079Z,78.30
2018-02-03T13:31:24.594Z,77.30
2018-02-03T13:35:27.884Z,77.80
2018-02-03T13:39:30.476Z,77.60
2018-02-03T13:43:33.746Z,77.30
2018-02-03T13:47:36.274Z,77.20
2018-02-03T13:51:40.172Z,77.30
2018-02-03T13:55:42.685Z,77.30
2018-02-03T13:59:45.940Z,78.00
2018-02-03T14:03:48.744Z,78.00
2018-02-03T14:07:51.227Z,77.90
2018-02-03T14:11:53.749Z,78.00
2018-02-03T14:15:57.021Z,77.90
2018-02-03T14:19:59.601Z,77.90
2018-02-03T14:24:07.780Z,77.90
2018-02-03T14:28:10.309Z,78.00
2018-02-03T14:32:12.810Z,78.90
2018-02-03T14:36:15.430Z,78.90
2018-02-03T14:40:18.073Z,78.60
2018-02-03T14:44:20.617Z,79.00
2018-02-03T14:48:23.121Z,78.90
2018-02-03T14:52:25.661Z,79.10
2018-02-03T14:56:28.188Z,78.80
2018-02-03T15:00:31.544Z,79.40
2018-02-03T15:04:34.836Z,79.70
2018-02-03T15:08:37.400Z,79.70
2018-02-03T15:12:40.669Z,79.30
2018-02-03T15:16:43.204Z,79.30
2018-02-03T15:20:45.708Z,79.60
2018-02-03T15:24:49.011Z,80.70
2018-02-03T15:28:52.315Z,80.40
2018-02-03T15:32:55.599Z,80.00
2018-02-03T15:36:58.112Z,79.90
2018-02-03T15:41:01.401Z,79.70
2018-02-03T15:45:04.688Z,79.80
2018-02-03T15:49:07.211Z,79.40
2018-02-03T15:53:09.716Z,79.50
2018-02-03T15:57:12.369Z,79.70
2018-02-03T16:01:15.688Z,79.60
2018-02-03T16:05:18.205Z,79.40
2018-02-03T16:09:20.914Z,79.40
2018-02-03T16:13:23.413Z,79.60
2018-02-03T16:17:26.213Z,79.70
2018-02-03T16:21:28.713Z,79.80
2018-02-03T16:25:32.018Z,80.20
2018-02-03T16:29:35.349Z,80.40
2018-02-03T16:33:48.349Z,80.30
2018-02-03T16:37:51.655Z,79.90
2018-02-03T16:41:55.292Z,79.80
2018-02-03T16:45:57.817Z,79.70
2018-02-03T16:50:00.354Z,79.70
2018-02-03T16:54:03.620Z,80.40
2018-02-03T16:58:06.175Z,80.40
2018-02-03T17:02:08.703Z,80.50
2018-02-03T17:06:11.297Z,80.30
2018-02-03T17:10:14.596Z,80.80
2018-02-03T17:14:17.111Z,80.00
2018-02-03T17:18:19.644Z,80.50
2018-02-03T17:22:22.148Z,79.80
2018-02-03T17:26:24.686Z,79.40
2018-02-03T17:30:27.198Z,79.40
2018-02-03T17:34:29.749Z,79.80
2018-02-03T17:38:37.937Z,79.50
2018-02-03T17:42:41.238Z,79.90
2018-02-03T17:46:49.365Z,79.80
2018-02-03T17:50:52.704Z,79.50
2018-02-03T17:54:55.247Z,79.50
2018-02-03T17:58:58.541Z,80.00
2018-02-03T18:03:01.054Z,80.00
2018-02-03T18:07:05.492Z,79.20
2018-02-03T18:11:08.021Z,79.90
2018-02-03T18:15:10.624Z,79.80
2018-02-03T18:19:13.142Z,80.20
2018-02-03T18:23:16.530Z,80.10
2018-02-03T18:27:19.081Z,80.10
2018-02-03T18:31:21.617Z,80.40
2018-02-03T18:35:24.907Z,80.40
2018-02-03T18:39:28.212Z,80.80
2018-02-03T18:43:31.471Z,80.90
2018-02-03T18:47:33.996Z,80.80
2018-02-03T18:51:36.524Z,81.00
2018-02-03T18:55:39.055Z,81.00
2018-02-03T18:59:41.570Z,81.20
2018-02-03T19:03:44.872Z,81.60
2018-02-03T19:07:48.153Z,82.50
2018-02-03T19:11:50.717Z,82.30
2018-02-03T19:15:53.223Z,82.40
2018-02-03T19:19:55.807Z,82.60
2018-02-03T19:23:58.364Z,82.60
2018-02-03T19:28:00.902Z,82.80
2018-02-03T19:32:04.209Z,83.40
2018-02-03T19:36:07.485Z,83.50
2018-02-03T19:40:10.012Z,83.50
2018-02-03T19:44:12.586Z,83.10
2018-02-03T19:48:15.875Z,82.20
2018-02-03T19:52:18.408Z,82.20
2018-02-03T19:56:20.943Z,81.80
2018-02-03T20:00:23.463Z,82.00
2018-02-03T20:04:26.027Z,82.40
2018-02-03T20:08:29.295Z,81.90
2018-02-03T20:12:31.822Z,81.90
2018-02-03T20:16:35.095Z,82.10
2018-02-03T20:20:37.637Z,82.10
2018-02-03T20:24:40.157Z,81.90
2018-02-03T20:28:42.717Z,81.70
2018-02-03T20:32:45.235Z,82.10
2018-02-03T20:36:47.756Z,82.40
2018-02-03T20:40:51.037Z,82.30
2018-02-03T20:44:53.600Z,82.20
2018-02-03T20:48:56.132Z,82.60
2018-02-03T20:52:59.447Z,82.60
2018-02-03T20:57:01.949Z,82.50
2018-02-03T21:01:04.489Z,82.70
2018-02-03T21:05:06.995Z,82.40
2018-02-03T21:09:10.310Z,82.70
2018-02-03T21:13:12.836Z,82.70
2018-02-03T21:17:15.395Z,82.40
2018-02-03T21:21:17.920Z,82.20
2018-02-03T21:25:20.450Z,82.40
2018-02-03T21:29:23.029Z,82.40
2018-02-03T21:33:26.806Z,82.20
2018-02-03T21:37:29.342Z,82.20
2018-02-03T21:41:31.869Z,82.10
2018-02-03T21:45:34.408Z,81.40
2018-02-03T21:49:37.713Z,81.00
2018-02-03T21:53:40.242Z,81.00
2018-02-03T21:57:42.841Z,81.10
2018-02-03T22:01:45.374Z,81.50
2018-02-03T22:06:00.695Z,81.90
2018-02-03T22:10:03.204Z,82.00
2018-02-03T22:14:06.509Z,82.70
2018-02-03T22:18:09.024Z,82.70
2018-02-03T22:22:12.361Z,82.70
2018-02-03T22:26:14.875Z,82.70
2018-02-03T22:30:17.433Z,82.70
2018-02-03T22:34:19.940Z,83.00
2018-02-03T22:38:22.480Z,83.50
2018-02-03T22:42:25.007Z,83.50
2018-02-03T22:46:27.579Z,83.60
2018-02-03T22:50:30.888Z,83.80
2018-02-03T22:54:33.398Z,83.80
2018-02-03T22:58:35.898Z,83.80
2018-02-03T23:02:44.125Z,84.00
2018-02-03T23:06:46.645Z,84.70
2018-02-03T23:10:49.178Z,85.70
2018-02-03T23:14:51.694Z,86.30
2018-02-03T23:18:54.989Z,86.60
2018-02-03T23:22:58.201Z,86.60
2018-02-03T23:27:01.510Z,87.30
2018-02-03T23:31:04.797Z,87.90
2018-02-03T23:35:07.343Z,87.80
2018-02-03T23:39:09.856Z,88.40
2018-02-03T23:43:12.383Z,89.60
2018-02-03T23:47:14.996Z,89.60
2018-02-03T23:51:24.668Z,90.00
2018-02-03T23:55:50.906Z,89.80
